Stockton, CA (95201)

10:48 PM PST on February 09, 2016 (GMT -0800)
Garden Acres | | Change Station
CLOSE
Current Station
Personal Weather Station
Location: Stockton, CA
Elevation: 30 ft
Nearby Weather Stations

Elev 30 ft 37.96 °N, 121.24 °W | Updated 34 seconds ago

Clear
Clear
52.9 °F
Feels Like 52.9 °F
N
0.0
Wind Variable Wind from East
Gusts 0.0 mph

Today
High -- | Low -- °F
--% Chance of Precip.
Yesterday
High -- | Low -- °F
Precip. -- in
Pressure 30.18 in
Visibility 7.0 miles
Clouds Clear
Dew Point 52 °F
Humidity 98%
Rainfall 0.00 in
Snow Depth Not available.
7:01 AM 5:36 PM
Waxing Crescent, 4% visible
METAR KSCK 100555Z AUTO 19003KT 7SM CLR 12/08 A3018 RMK AO2 SLP220 T01170083 10217 20111 51003
Pressure 30.18 in
Visibility 7.0 miles
Clouds Clear
Dew Point 52 °F
Humidity 98%
Rainfall 0.00 in
Snow Depth Not available.
7:01 AM 5:36 PM
Waxing Crescent, 4% visible
METAR KSCK 100555Z AUTO 19003KT 7SM CLR 12/08 A3018 RMK AO2 SLP220 T01170083 10217 20111 51003

10-Day Weather Forecast

Almanac

Astronomy

Feb. 09, 2016 Rise Set
Actual Time
Civil Twilight
Nautical Twilight
Astronomical Twilight
Moon
Length of Visible Light
Length of Day
Tomorrow will be .
, % of the Moon is Illuminated

Today's Extremes

State Highs State Lows

Community

WunderPhotos

Upload Photos

1,891,826 photos uploaded!

WunderBlog® & News

Nearby

Air Quality

  Air Quality AQ Index Pollutant
Not available.

Snow Depth

Station Depth Elevation

Earthquake Activity

City Distance Mag. Time & Date
Minimum magnitude displayed is 2.5.

Coastal Water Temperatures

Place Temperature

Stations

Nearby Weather Stations

Station Location Temp. Windchill Dew Point Humidity Wind Precip. Elev Updated Type
                   

Watches & Warnings

There are currently no watches in effect.